Terminal Aerodrome Forecast
Issued by NWS

Home | Current Version | Previous Version | Graphics & Text | Print | Product List | Glossary On
Versions: 1 2 3 4 5 6 7 8 9 10 11 12 13 14 15 16
000
FTUS43 KBIS 222327
TAFDIK
TAF
KDIK 222327Z 2300/2324 30027G37KT P6SM FEW100
     FM230300 31023G33KT P6SM SCT035 BKN070
     FM230600 31021G31KT P6SM BKN025 BKN035
     FM231400 31023G33KT P6SM FEW050=

USA.gov is the U.S. government's official web portal to all federal, state and local government web resources and services.